Tordesillas, Spain
Current Conditions -  °F | °C
As of 9:30 PM on Saturday 25 Oct 2014 (Local Time) from LEVD Reporting Station
Clear Clear  
Wind Chill: 61°   Ceiling: Unl
Heat Index: 61°   Visibility: 6mi
Dew Point: 48°   Wind: 7mph
Humidity: 63%   Direction: 60°ENE
Pressure: 30.21"   Gusts: NA
Location:  41.5°N, 5°W
Report Text: LEVD 251930Z 06006KT CAVOK 16/09 Q1023
Loading
Personal Weather Stations






























Interactive Weather Map New forecast layout! Learn more

10-Day Weather Forecast

Advertisements
Track Severe Weather on mobile